createdAt,value
2019-06-15T00:02:08.486Z,566.50
2019-06-15T00:04:34.551Z,564.45
2019-06-15T00:07:00.608Z,571.53
2019-06-15T00:09:26.784Z,563.33
2019-06-15T00:11:52.841Z,559.80
2019-06-15T00:14:18.901Z,576.67
2019-06-15T00:16:44.987Z,571.60
2019-06-15T00:19:11.059Z,561.08
2019-06-15T00:21:37.157Z,555.35
2019-06-15T00:24:03.221Z,552.30
2019-06-15T00:26:29.297Z,571.60
2019-06-15T00:28:55.366Z,579.35
2019-06-15T00:31:21.464Z,580.42
2019-06-15T00:33:47.564Z,564.37
2019-06-15T00:36:13.636Z,576.98
2019-06-15T00:38:39.703Z,574.73
2019-06-15T00:41:05.898Z,563.45
2019-06-15T00:43:32.068Z,564.00
2019-06-15T00:45:58.174Z,575.65
2019-06-15T00:48:24.231Z,561.02
2019-06-15T00:50:50.291Z,569.25
2019-06-15T00:53:16.363Z,562.33
2019-06-15T00:55:42.423Z,576.02
2019-06-15T00:58:08.484Z,572.83
2019-06-15T01:00:34.671Z,626.20
2019-06-15T01:03:00.739Z,573.25
2019-06-15T01:05:26.817Z,564.27
2019-06-15T01:07:52.984Z,567.40
2019-06-15T01:10:19.448Z,570.23
2019-06-15T01:12:45.503Z,565.83
2019-06-15T01:15:13.318Z,564.80
2019-06-15T01:17:40.284Z,560.37
2019-06-15T01:20:07.377Z,561.25
2019-06-15T01:22:33.880Z,558.45
2019-06-15T01:25:05.757Z,556.67
2019-06-15T01:27:28.043Z,567.15
2019-06-15T01:29:54.217Z,564.73
2019-06-15T01:32:20.325Z,581.55
2019-06-15T01:34:47.187Z,559.03
2019-06-15T01:37:13.628Z,576.55
2019-06-15T01:39:39.873Z,572.00
2019-06-15T01:42:06.055Z,569.33
2019-06-15T01:44:32.147Z,556.67
2019-06-15T01:46:58.216Z,568.35
2019-06-15T01:49:24.312Z,564.13
2019-06-15T01:51:50.381Z,578.27
2019-06-15T01:54:16.459Z,550.92
2019-06-15T01:56:42.548Z,559.92
2019-06-15T01:59:08.616Z,565.05
2019-06-15T02:01:34.855Z,560.30
2019-06-15T02:04:00.976Z,552.42
2019-06-15T02:06:27.051Z,557.17
2019-06-15T02:08:53.241Z,559.55
2019-06-15T02:11:19.336Z,557.65
2019-06-15T02:13:45.525Z,555.55
2019-06-15T02:16:11.600Z,550.67
2019-06-15T02:18:37.737Z,556.02
2019-06-15T02:21:04.520Z,567.83
2019-06-15T02:23:30.684Z,551.30
2019-06-15T02:25:56.780Z,554.27
2019-06-15T02:28:22.851Z,554.38
2019-06-15T02:30:48.937Z,596.95
2019-06-15T02:33:15.025Z,555.25
2019-06-15T02:35:41.992Z,552.23
2019-06-15T02:38:08.084Z,574.17
2019-06-15T02:40:34.173Z,559.00
2019-06-15T02:43:00.350Z,559.75
2019-06-15T02:45:26.437Z,555.92
2019-06-15T02:47:52.662Z,569.13
2019-06-15T02:50:19.408Z,560.73
2019-06-15T02:52:45.576Z,560.00
2019-06-15T02:55:12.156Z,553.73
2019-06-15T02:57:38.324Z,556.08
2019-06-15T03:00:06.518Z,553.70
2019-06-15T03:02:32.880Z,566.67
2019-06-15T03:04:58.993Z,552.83
2019-06-15T03:07:25.064Z,553.38
2019-06-15T03:09:51.568Z,557.65
2019-06-15T03:12:18.442Z,572.85
2019-06-15T03:14:44.507Z,574.50
2019-06-15T03:17:10.601Z,572.90
2019-06-15T03:19:36.665Z,565.60
2019-06-15T03:22:02.977Z,570.00
2019-06-15T03:24:30.737Z,575.72
2019-06-15T03:26:56.898Z,585.87
2019-06-15T03:29:22.983Z,562.45
2019-06-15T03:31:49.070Z,571.17
2019-06-15T03:34:15.165Z,560.05
2019-06-15T03:36:41.332Z,568.15
2019-06-15T03:39:07.400Z,558.38
2019-06-15T03:41:33.524Z,563.55
2019-06-15T03:43:59.607Z,573.67
2019-06-15T03:46:25.713Z,572.20
2019-06-15T03:48:51.775Z,585.15
2019-06-15T03:51:17.864Z,562.38
2019-06-15T03:53:43.931Z,562.35
2019-06-15T03:56:21.022Z,561.80
2019-06-15T03:58:37.999Z,573.97
2019-06-15T04:01:10.619Z,582.33
2019-06-15T04:03:36.741Z,580.70
2019-06-15T04:06:02.824Z,575.87
2019-06-15T04:08:28.923Z,568.27
2019-06-15T04:10:55.010Z,570.60
2019-06-15T04:13:21.073Z,562.08
2019-06-15T04:15:47.152Z,634.30
2019-06-15T04:18:13.225Z,565.08
2019-06-15T04:20:39.311Z,575.08
2019-06-15T04:23:05.471Z,572.83
2019-06-15T04:25:31.560Z,568.25
2019-06-15T04:27:57.623Z,566.05
2019-06-15T04:30:23.717Z,563.50
2019-06-15T04:32:49.818Z,611.00
2019-06-15T04:35:15.972Z,565.73
2019-06-15T04:37:42.065Z,569.62
2019-06-15T04:40:08.323Z,590.45
2019-06-15T04:42:34.456Z,574.35
2019-06-15T04:45:01.740Z,586.25
2019-06-15T04:47:27.904Z,564.27
2019-06-15T04:49:53.997Z,566.95
2019-06-15T04:52:20.168Z,564.42
2019-06-15T04:54:46.264Z,569.13
2019-06-15T04:57:12.538Z,565.73
2019-06-15T04:59:38.607Z,583.12
2019-06-15T05:02:04.707Z,573.67
2019-06-15T05:04:30.780Z,570.73
2019-06-15T05:06:57.179Z,583.48
2019-06-15T05:09:23.267Z,579.80
2019-06-15T05:11:49.419Z,581.42
2019-06-15T05:14:15.504Z,582.92
2019-06-15T05:16:41.585Z,588.45
2019-06-15T05:19:07.776Z,588.75
2019-06-15T05:21:33.848Z,631.08
2019-06-15T05:23:59.925Z,582.52
2019-06-15T05:26:26.003Z,591.77
2019-06-15T05:28:52.077Z,607.88
2019-06-15T05:31:18.290Z,576.25
2019-06-15T05:33:44.457Z,584.52
2019-06-15T05:36:10.536Z,573.25
2019-06-15T05:38:36.620Z,585.20
2019-06-15T05:41:02.796Z,582.15
2019-06-15T05:43:30.803Z,591.45
2019-06-15T05:45:56.881Z,576.33
2019-06-15T05:48:22.949Z,593.77
2019-06-15T05:50:49.142Z,582.67
2019-06-15T05:53:15.217Z,582.35
2019-06-15T05:55:42.133Z,593.00
2019-06-15T05:58:08.292Z,596.22
2019-06-15T06:00:34.398Z,627.62
2019-06-15T06:03:00.525Z,563.42
2019-06-15T06:05:26.604Z,567.17
2019-06-15T06:07:52.850Z,613.40
2019-06-15T06:10:18.954Z,583.67
2019-06-15T06:12:45.035Z,590.30
2019-06-15T06:15:11.632Z,568.73
2019-06-15T06:17:37.723Z,585.48
2019-06-15T06:20:07.682Z,580.10
2019-06-15T06:22:33.772Z,581.85
2019-06-15T06:24:59.842Z,567.85
2019-06-15T06:27:36.158Z,593.37
2019-06-15T06:29:53.915Z,573.28
2019-06-15T06:32:20.015Z,581.00
2019-06-15T06:34:46.207Z,584.95
2019-06-15T06:37:12.368Z,600.90
2019-06-15T06:39:38.436Z,575.92
2019-06-15T06:42:04.541Z,578.35
2019-06-15T06:44:30.739Z,582.90
2019-06-15T06:46:56.931Z,578.42
2019-06-15T06:49:23.001Z,572.08
2019-06-15T06:51:49.079Z,564.85
2019-06-15T06:54:15.263Z,572.83
2019-06-15T06:56:41.335Z,578.67
2019-06-15T06:59:07.396Z,584.27
2019-06-15T07:01:33.493Z,580.50
2019-06-15T07:03:59.574Z,572.37
2019-06-15T07:06:25.740Z,586.08
2019-06-15T07:08:51.832Z,591.70
2019-06-15T07:11:17.999Z,578.17
2019-06-15T07:13:44.084Z,573.28
2019-06-15T07:16:10.633Z,579.75
2019-06-15T07:18:37.090Z,570.83
2019-06-15T07:21:03.508Z,588.17
2019-06-15T07:23:31.885Z,585.08
2019-06-15T07:26:06.598Z,587.75
2019-06-15T07:28:32.808Z,575.15
2019-06-15T07:30:58.968Z,579.02
2019-06-15T07:33:25.052Z,562.75
2019-06-15T07:35:51.347Z,586.85
2019-06-15T07:38:17.548Z,573.92
2019-06-15T07:40:44.439Z,564.95
2019-06-15T07:43:10.535Z,594.10
2019-06-15T07:45:36.607Z,599.42
2019-06-15T07:48:02.880Z,602.33
2019-06-15T07:50:28.985Z,581.13
2019-06-15T07:52:55.057Z,590.90
2019-06-15T07:55:21.132Z,567.27
2019-06-15T07:57:47.223Z,584.95
2019-06-15T08:00:13.800Z,586.02
2019-06-15T08:02:39.871Z,567.17
2019-06-15T08:05:07.481Z,572.27
2019-06-15T08:07:33.632Z,576.48
2019-06-15T08:09:59.700Z,567.42
2019-06-15T08:12:25.884Z,571.98
2019-06-15T08:14:51.981Z,576.82
2019-06-15T08:17:18.157Z,590.50
2019-06-15T08:19:44.230Z,569.77
2019-06-15T08:22:10.296Z,576.80
2019-06-15T08:24:36.376Z,572.55
2019-06-15T08:27:03.046Z,573.60
2019-06-15T08:29:29.136Z,588.45
2019-06-15T08:31:55.268Z,594.77
2019-06-15T08:34:21.612Z,575.65
2019-06-15T08:36:47.676Z,578.40
2019-06-15T08:39:13.761Z,586.80
2019-06-15T08:41:40.025Z,574.83
2019-06-15T08:44:06.110Z,600.65
2019-06-15T08:46:32.186Z,589.65
2019-06-15T08:48:58.267Z,635.52
2019-06-15T08:51:24.340Z,591.77
2019-06-15T08:53:50.523Z,600.65
2019-06-15T08:56:16.589Z,591.58
2019-06-15T08:58:54.782Z,590.98
2019-06-15T09:01:10.646Z,598.88
2019-06-15T09:03:36.736Z,594.62
2019-06-15T09:06:03.105Z,640.67
2019-06-15T09:08:29.168Z,594.77
2019-06-15T09:10:55.252Z,594.50
2019-06-15T09:13:21.309Z,588.77
2019-06-15T09:15:51.196Z,695.83
2019-06-15T09:18:17.270Z,617.53
2019-06-15T09:20:43.344Z,603.42
2019-06-15T09:23:09.407Z,607.10
2019-06-15T09:25:36.840Z,616.90
2019-06-15T09:28:03.055Z,642.35
2019-06-15T09:30:29.177Z,609.15
2019-06-15T09:32:55.279Z,630.08
2019-06-15T09:35:21.347Z,635.17
2019-06-15T09:37:47.427Z,601.42
2019-06-15T09:40:13.693Z,638.33
2019-06-15T09:42:39.771Z,603.48
2019-06-15T09:45:07.067Z,610.80
2019-06-15T09:47:33.269Z,607.75
2019-06-15T09:49:59.447Z,607.47
2019-06-15T09:52:25.639Z,616.52
2019-06-15T09:54:51.704Z,605.05
2019-06-15T09:57:17.807Z,600.65
2019-06-15T09:59:44.000Z,627.65
2019-06-15T10:02:10.081Z,628.62
2019-06-15T10:04:36.154Z,611.58
2019-06-15T10:07:02.369Z,608.67
2019-06-15T10:09:28.534Z,608.20
2019-06-15T10:11:54.696Z,617.17
2019-06-15T10:14:20.798Z,610.13
2019-06-15T10:16:46.972Z,608.05
2019-06-15T10:19:13.041Z,611.85
2019-06-15T10:21:39.135Z,605.67
2019-06-15T10:24:05.205Z,622.33
2019-06-15T10:26:31.306Z,619.05
2019-06-15T10:28:57.569Z,618.27
2019-06-15T10:31:23.725Z,613.72
2019-06-15T10:33:49.802Z,612.00
2019-06-15T10:36:16.121Z,626.02
2019-06-15T10:38:42.232Z,612.83
2019-06-15T10:41:08.315Z,621.33
2019-06-15T10:43:34.384Z,609.58
2019-06-15T10:46:00.473Z,607.95
2019-06-15T10:48:26.552Z,612.65
2019-06-15T10:50:52.662Z,639.35
2019-06-15T10:53:18.802Z,608.98
2019-06-15T10:55:44.896Z,629.77
2019-06-15T10:58:11.085Z,642.08
2019-06-15T11:00:37.264Z,682.80
2019-06-15T11:03:03.640Z,672.92
2019-06-15T11:05:29.709Z,658.40
2019-06-15T11:07:55.794Z,662.40
2019-06-15T11:10:40.963Z,666.08
2019-06-15T11:13:07.214Z,658.42
2019-06-15T11:15:33.493Z,634.10
2019-06-15T11:17:59.892Z,618.27
2019-06-15T11:20:25.987Z,623.45
2019-06-15T11:22:52.167Z,646.75
2019-06-15T11:25:18.375Z,705.90
2019-06-15T11:27:44.619Z,639.48
2019-06-15T11:30:14.264Z,629.48
2019-06-15T11:32:39.516Z,639.13
2019-06-15T11:35:06.181Z,637.67
2019-06-15T11:37:32.246Z,651.08
2019-06-15T11:39:58.337Z,635.35
2019-06-15T11:42:24.421Z,653.90
2019-06-15T11:44:50.490Z,605.65
2019-06-15T11:47:16.772Z,629.95
2019-06-15T11:49:42.862Z,663.63
2019-06-15T11:52:08.952Z,717.22
2019-06-15T11:54:35.015Z,705.15
2019-06-15T11:57:01.104Z,685.25
2019-06-15T11:59:27.174Z,760.83
2019-06-15T12:01:53.253Z,782.77
2019-06-15T12:04:19.334Z,770.85
2019-06-15T12:06:45.422Z,794.65
2019-06-15T12:09:11.493Z,770.02
2019-06-15T12:11:37.655Z,823.62
2019-06-15T12:14:03.734Z,757.67
2019-06-15T12:16:29.815Z,756.42
2019-06-15T12:18:55.904Z,752.95
2019-06-15T12:21:22.080Z,784.27
2019-06-15T12:23:48.151Z,759.55
2019-06-15T12:26:14.328Z,800.17
2019-06-15T12:28:40.413Z,793.90
2019-06-15T12:31:06.526Z,812.12
2019-06-15T12:33:32.679Z,817.50
2019-06-15T12:35:58.756Z,839.40
2019-06-15T12:38:24.828Z,876.02
2019-06-15T12:40:50.920Z,893.43
2019-06-15T12:43:17.076Z,876.80
2019-06-15T12:45:43.257Z,865.27
2019-06-15T12:48:09.337Z,849.25
2019-06-15T12:50:35.414Z,886.37
2019-06-15T12:53:01.499Z,909.17
2019-06-15T12:55:28.400Z,938.12
2019-06-15T12:57:54.610Z,947.73
2019-06-15T13:00:27.284Z,983.37
2019-06-15T13:02:53.351Z,976.13
2019-06-15T13:05:19.443Z,984.30
2019-06-15T13:07:45.511Z,975.40
2019-06-15T13:10:11.811Z,963.40
2019-06-15T13:12:37.880Z,954.80
2019-06-15T13:15:04.750Z,922.07
2019-06-15T13:17:31.795Z,900.97
2019-06-15T13:19:57.964Z,885.55
2019-06-15T13:22:24.052Z,886.15
2019-06-15T13:24:50.134Z,829.72
2019-06-15T13:27:16.279Z,850.70
2019-06-15T13:29:42.377Z,842.42
2019-06-15T13:32:08.427Z,789.45
2019-06-15T13:34:34.552Z,800.75
2019-06-15T13:37:00.625Z,781.17
2019-06-15T13:39:26.784Z,814.67
2019-06-15T13:41:52.867Z,767.90
2019-06-15T13:44:19.036Z,826.10
2019-06-15T13:46:45.123Z,777.00
2019-06-15T13:49:11.235Z,754.60
2019-06-15T13:51:37.422Z,779.48
2019-06-15T13:54:03.492Z,798.70
2019-06-15T13:56:29.584Z,810.17
2019-06-15T13:58:55.660Z,847.50
2019-06-15T14:01:33.631Z,817.07
2019-06-15T14:03:49.734Z,786.92
2019-06-15T14:06:15.961Z,786.58
2019-06-15T14:08:42.023Z,774.60
2019-06-15T14:11:08.109Z,745.10
2019-06-15T14:13:34.266Z,714.55
2019-06-15T14:16:00.340Z,691.98
2019-06-15T14:18:26.428Z,689.97
2019-06-15T14:20:52.496Z,687.70
2019-06-15T14:23:18.592Z,672.27
2019-06-15T14:25:44.672Z,637.52
2019-06-15T14:28:10.837Z,633.40
2019-06-15T14:30:36.933Z,652.97
2019-06-15T14:33:03.003Z,632.00
2019-06-15T14:35:29.201Z,618.13
2019-06-15T14:37:55.273Z,614.20
2019-06-15T14:40:21.447Z,607.17
2019-06-15T14:42:47.542Z,597.67
2019-06-15T14:45:14.319Z,602.13
2019-06-15T14:47:40.402Z,596.25
2019-06-15T14:50:06.697Z,610.90
2019-06-15T14:52:32.876Z,596.63
2019-06-15T14:54:58.950Z,593.95
2019-06-15T14:57:27.134Z,600.92
2019-06-15T15:00:01.534Z,600.20
2019-06-15T15:02:21.016Z,601.05
2019-06-15T15:04:47.110Z,609.05
2019-06-15T15:07:13.275Z,588.25
2019-06-15T15:09:39.360Z,589.37
2019-06-15T15:12:05.540Z,591.58
2019-06-15T15:14:31.626Z,605.92
2019-06-15T15:16:57.895Z,590.90
2019-06-15T15:19:23.994Z,583.40
2019-06-15T15:21:50.153Z,582.30
2019-06-15T15:24:16.705Z,588.92
2019-06-15T15:26:43.032Z,584.75
2019-06-15T15:29:09.192Z,582.80
2019-06-15T15:31:36.204Z,588.77
2019-06-15T15:34:04.320Z,582.20
2019-06-15T15:36:30.461Z,588.35
2019-06-15T15:38:56.525Z,590.40
2019-06-15T15:41:22.599Z,590.12
2019-06-15T15:43:48.685Z,580.98
2019-06-15T15:46:16.485Z,607.27
2019-06-15T15:48:42.864Z,579.12
2019-06-15T15:51:09.070Z,580.80
2019-06-15T15:53:37.352Z,596.77
2019-06-15T15:56:03.125Z,579.60
2019-06-15T15:58:29.201Z,581.73
2019-06-15T16:00:57.203Z,641.52
2019-06-15T16:03:23.264Z,588.52
2019-06-15T16:05:49.361Z,582.15
2019-06-15T16:08:16.384Z,577.33
2019-06-15T16:10:42.708Z,579.67
2019-06-15T16:13:08.891Z,590.35
2019-06-15T16:15:37.199Z,584.67
2019-06-15T16:18:02.987Z,575.25
2019-06-15T16:20:29.154Z,584.05
2019-06-15T16:22:56.393Z,586.80
2019-06-15T16:25:23.077Z,574.75
2019-06-15T16:27:49.165Z,574.92
2019-06-15T16:30:59.772Z,578.05
2019-06-15T16:33:04.061Z,583.90
2019-06-15T16:35:30.057Z,580.92
2019-06-15T16:37:56.241Z,579.62
2019-06-15T16:40:29.224Z,580.03
2019-06-15T16:42:56.570Z,581.65
2019-06-15T16:45:22.852Z,584.40
2019-06-15T16:47:48.945Z,579.38
2019-06-15T16:50:16.163Z,588.75
2019-06-15T16:52:42.407Z,576.20
2019-06-15T16:55:10.941Z,578.88
2019-06-15T16:57:37.029Z,586.17
2019-06-15T17:00:07.852Z,624.42
2019-06-15T17:02:36.710Z,571.98
2019-06-15T17:05:04.436Z,576.33
2019-06-15T17:07:30.533Z,576.33
2019-06-15T17:09:56.958Z,580.20
2019-06-15T17:12:23.188Z,585.48
2019-06-15T17:14:49.262Z,598.67
2019-06-15T17:17:17.334Z,657.58
2019-06-15T17:19:43.412Z,612.30
2019-06-15T17:22:18.732Z,572.58
2019-06-15T17:24:37.449Z,569.30
2019-06-15T17:27:05.958Z,617.77
2019-06-15T17:29:31.511Z,593.58
2019-06-15T17:31:57.595Z,592.27
2019-06-15T17:34:26.047Z,574.90
2019-06-15T17:36:51.648Z,581.50
2019-06-15T17:39:17.719Z,585.85
2019-06-15T17:41:43.788Z,576.67
2019-06-15T17:44:09.872Z,561.83
2019-06-15T17:46:35.953Z,573.30
2019-06-15T17:49:02.048Z,568.75
2019-06-15T17:51:28.145Z,582.12
2019-06-15T17:53:56.307Z,573.92
2019-06-15T17:56:22.284Z,583.77
2019-06-15T17:58:48.344Z,572.70
2019-06-15T18:01:17.232Z,583.77
2019-06-15T18:03:53.306Z,569.45
2019-06-15T18:06:11.508Z,577.40
2019-06-15T18:08:37.667Z,586.60
2019-06-15T18:11:03.765Z,576.25
2019-06-15T18:13:29.836Z,577.47
2019-06-15T18:15:56.634Z,667.60
2019-06-15T18:18:23.001Z,564.17
2019-06-15T18:20:49.090Z,577.05
2019-06-15T18:23:17.415Z,557.73
2019-06-15T18:25:43.156Z,562.58
2019-06-15T18:28:09.423Z,574.23
2019-06-15T18:30:37.153Z,590.85
2019-06-15T18:33:03.431Z,586.40
2019-06-15T18:35:30.470Z,565.28
2019-06-15T18:37:56.769Z,564.05
2019-06-15T18:40:22.843Z,582.02
2019-06-15T18:42:48.927Z,565.67
2019-06-15T18:45:16.027Z,566.52
2019-06-15T18:47:42.281Z,558.60
2019-06-15T18:50:08.855Z,580.90
2019-06-15T18:52:37.827Z,567.48
2019-06-15T18:55:05.033Z,565.80
2019-06-15T18:57:31.232Z,563.48
2019-06-15T18:59:57.299Z,568.40
2019-06-15T19:02:23.370Z,572.17
2019-06-15T19:04:49.768Z,570.70
2019-06-15T19:07:16.292Z,570.50
2019-06-15T19:09:42.504Z,567.17
2019-06-15T19:12:08.597Z,596.60
2019-06-15T19:14:36.167Z,581.00
2019-06-15T19:17:02.656Z,591.98
2019-06-15T19:19:28.723Z,570.52
2019-06-15T19:21:57.020Z,569.50
2019-06-15T19:24:22.781Z,602.97
2019-06-15T19:26:48.871Z,572.08
2019-06-15T19:29:16.963Z,563.12
2019-06-15T19:31:42.952Z,558.40
2019-06-15T19:34:09.020Z,604.15
2019-06-15T19:36:36.703Z,567.83
2019-06-15T19:39:06.796Z,560.27
2019-06-15T19:41:32.884Z,567.95
2019-06-15T19:43:59.201Z,581.47
2019-06-15T19:46:26.036Z,582.88
2019-06-15T19:48:52.352Z,561.12
2019-06-15T19:51:18.445Z,565.28
2019-06-15T19:53:46.250Z,557.47
2019-06-15T19:56:12.532Z,577.58
2019-06-15T19:58:38.600Z,574.48
2019-06-15T20:01:06.729Z,569.35
2019-06-15T20:03:32.648Z,583.98
2019-06-15T20:05:58.688Z,567.40
2019-06-15T20:08:26.492Z,568.52
2019-06-15T20:10:52.735Z,582.17
2019-06-15T20:13:18.824Z,559.80
2019-06-15T20:15:46.908Z,581.17
2019-06-15T20:18:12.855Z,566.23
2019-06-15T20:20:38.937Z,557.88
2019-06-15T20:23:07.195Z,567.25
2019-06-15T20:25:32.984Z,569.88
2019-06-15T20:27:59.037Z,563.27
2019-06-15T20:30:25.119Z,560.87
2019-06-15T20:32:51.291Z,556.75
2019-06-15T20:35:21.128Z,564.10
2019-06-15T20:37:46.511Z,555.63
2019-06-15T20:40:16.359Z,564.95
2019-06-15T20:42:41.566Z,555.67
2019-06-15T20:45:09.932Z,568.60
2019-06-15T20:47:37.245Z,567.98
2019-06-15T20:50:08.065Z,558.58
2019-06-15T20:52:36.683Z,566.35
2019-06-15T20:55:06.579Z,560.58
2019-06-15T20:57:32.792Z,564.75
2019-06-15T20:59:58.885Z,555.48
2019-06-15T21:02:27.006Z,565.28
2019-06-15T21:04:53.036Z,554.83
2019-06-15T21:07:19.115Z,551.92
2019-06-15T21:09:46.818Z,560.50
2019-06-15T21:12:15.934Z,554.80
2019-06-15T21:14:41.463Z,558.25
2019-06-15T21:17:07.537Z,560.15
2019-06-15T21:19:35.946Z,563.52
2019-06-15T21:22:01.599Z,557.20
2019-06-15T21:24:27.696Z,558.42
2019-06-15T21:26:56.025Z,557.47
2019-06-15T21:29:21.749Z,549.70
2019-06-15T21:31:47.984Z,547.65
2019-06-15T21:34:14.041Z,554.45
2019-06-15T21:36:40.136Z,541.70
2019-06-15T21:39:06.934Z,552.05
2019-06-15T21:41:33.188Z,549.55
2019-06-15T21:43:59.373Z,547.95
2019-06-15T21:46:26.702Z,556.37
2019-06-15T21:48:53.035Z,548.17
2019-06-15T21:51:19.101Z,562.55
2019-06-15T21:53:46.901Z,553.42
2019-06-15T21:56:13.169Z,544.92
2019-06-15T21:58:39.284Z,546.37
2019-06-15T22:01:37.077Z,557.05
2019-06-15T22:04:06.423Z,560.90
2019-06-15T22:06:32.140Z,550.02
2019-06-15T22:08:58.219Z,548.25
2019-06-15T22:11:26.483Z,578.05
2019-06-15T22:13:52.979Z,569.65
2019-06-15T22:16:19.047Z,556.00
2019-06-15T22:18:47.418Z,558.38
2019-06-15T22:21:13.278Z,594.33
2019-06-15T22:23:39.364Z,574.58
2019-06-15T22:26:06.493Z,577.30
2019-06-15T22:28:32.941Z,582.85
2019-06-15T22:30:59.099Z,583.70
2019-06-15T22:33:26.947Z,554.42
2019-06-15T22:35:53.171Z,558.62
2019-06-15T22:38:19.229Z,536.25
2019-06-15T22:40:47.055Z,539.90
2019-06-15T22:43:13.437Z,552.62
2019-06-15T22:45:39.504Z,536.28
2019-06-15T22:48:06.774Z,527.80
2019-06-15T22:50:33.059Z,529.85
2019-06-15T22:52:59.140Z,530.95
2019-06-15T22:55:26.106Z,533.53
2019-06-15T22:57:52.365Z,545.12
2019-06-15T23:00:18.839Z,535.78
2019-06-15T23:02:46.037Z,554.45
2019-06-15T23:05:12.491Z,523.23
2019-06-15T23:07:38.552Z,546.48
2019-06-15T23:10:06.971Z,528.65
2019-06-15T23:12:33.312Z,530.00
2019-06-15T23:14:59.400Z,543.10
2019-06-15T23:17:25.480Z,526.85
2019-06-15T23:19:51.596Z,529.50
2019-06-15T23:22:17.752Z,534.40
2019-06-15T23:24:43.836Z,526.35
2019-06-15T23:27:09.908Z,536.92
2019-06-15T23:29:36.790Z,525.17
2019-06-15T23:32:03.077Z,528.95
2019-06-15T23:34:29.164Z,514.10
2019-06-15T23:37:00.834Z,526.48
2019-06-15T23:39:27.244Z,525.98
2019-06-15T23:41:53.324Z,529.60
2019-06-15T23:44:19.399Z,533.42
2019-06-15T23:46:46.968Z,517.90
2019-06-15T23:49:13.272Z,528.25
2019-06-15T23:51:39.433Z,532.50
2019-06-15T23:54:05.528Z,529.23
2019-06-15T23:56:31.603Z,518.02
2019-06-15T23:58:57.776Z,532.67
